sensor_id;sensor_type;location;lat;lon;timestamp;pressure;altitude;pressure_sealevel;temperature;humidity
31775;BME280;66189;49.000;11.640;2023-02-22T00:00:30;95951.06;;;4.80;81.14
31775;BME280;66189;49.000;11.640;2023-02-22T00:02:44;95957.78;;;4.78;81.57
31775;BME280;66189;49.000;11.640;2023-02-22T00:04:44;95947.94;;;4.78;81.22
31775;BME280;66189;49.000;11.640;2023-02-22T00:06:45;95948.09;;;4.73;80.92
31775;BME280;66189;49.000;11.640;2023-02-22T00:08:46;95952.78;;;4.76;81.02
31775;BME280;66189;49.000;11.640;2023-02-22T00:10:46;95946.38;;;4.77;81.67
31775;BME280;66189;49.000;11.640;2023-02-22T00:12:50;95946.81;;;4.79;81.59
31775;BME280;66189;49.000;11.640;2023-02-22T00:14:51;95949.47;;;4.79;82.95
31775;BME280;66189;49.000;11.640;2023-02-22T00:16:52;95947.31;;;4.73;82.92
31775;BME280;66189;49.000;11.640;2023-02-22T00:18:55;95942.31;;;4.71;83.14
31775;BME280;66189;49.000;11.640;2023-02-22T00:20:56;95945.75;;;4.72;82.90
31775;BME280;66189;49.000;11.640;2023-02-22T00:22:59;95942.00;;;4.73;81.92
31775;BME280;66189;49.000;11.640;2023-02-22T00:25:00;95938.56;;;4.63;81.38
31775;BME280;66189;49.000;11.640;2023-02-22T00:27:00;95941.25;;;4.63;81.38
31775;BME280;66189;49.000;11.640;2023-02-22T00:29:02;95934.22;;;4.59;81.46
31775;BME280;66189;49.000;11.640;2023-02-22T00:31:03;95934.22;;;4.59;82.59
31775;BME280;66189;49.000;11.640;2023-02-22T00:33:05;95931.22;;;4.60;82.59
31775;BME280;66189;49.000;11.640;2023-02-22T00:35:07;95922.91;;;4.62;82.76
31775;BME280;66189;49.000;11.640;2023-02-22T00:37:08;95934.53;;;4.57;83.79
31775;BME280;66189;49.000;11.640;2023-02-22T00:39:09;95928.41;;;4.57;83.30
31775;BME280;66189;49.000;11.640;2023-02-22T00:41:11;95929.69;;;4.51;82.77
31775;BME280;66189;49.000;11.640;2023-02-22T00:43:12;95926.69;;;4.52;82.90
31775;BME280;66189;49.000;11.640;2023-02-22T00:45:17;95927.94;;;4.55;82.96
31775;BME280;66189;49.000;11.640;2023-02-22T00:47:18;95924.31;;;4.59;84.09
31775;BME280;66189;49.000;11.640;2023-02-22T00:49:19;95929.34;;;4.61;84.24
31775;BME280;66189;49.000;11.640;2023-02-22T00:51:19;95931.22;;;4.60;84.52
31775;BME280;66189;49.000;11.640;2023-02-22T00:53:21;95932.63;;;4.58;83.77
31775;BME280;66189;49.000;11.640;2023-02-22T00:55:24;95925.28;;;4.55;83.20
31775;BME280;66189;49.000;11.640;2023-02-22T00:57:24;95933.47;;;4.41;83.18
31775;BME280;66189;49.000;11.640;2023-02-22T00:59:24;95933.78;;;4.39;83.24
31775;BME280;66189;49.000;11.640;2023-02-22T01:01:26;95929.09;;;4.36;82.87
31775;BME280;66189;49.000;11.640;2023-02-22T01:03:30;95924.22;;;4.38;82.82
31775;BME280;66189;49.000;11.640;2023-02-22T01:05:31;95925.03;;;4.30;81.95
31775;BME280;66189;49.000;11.640;2023-02-22T01:07:32;95926.75;;;4.26;81.73
31775;BME280;66189;49.000;11.640;2023-02-22T01:09:32;95919.72;;;4.21;81.74
31775;BME280;66189;49.000;11.640;2023-02-22T01:11:34;95922.56;;;4.16;81.82
31775;BME280;66189;49.000;11.640;2023-02-22T01:13:34;95919.91;;;4.07;82.68
31775;BME280;66189;49.000;11.640;2023-02-22T01:15:36;95918.66;;;4.05;82.97
31775;BME280;66189;49.000;11.640;2023-02-22T01:17:37;95923.03;;;4.09;82.42
31775;BME280;66189;49.000;11.640;2023-02-22T01:19:37;95923.34;;;4.08;83.21
31775;BME280;66189;49.000;11.640;2023-02-22T01:21:41;95919.28;;;4.11;83.36
31775;BME280;66189;49.000;11.640;2023-02-22T01:23:45;95921.78;;;4.16;83.59
31775;BME280;66189;49.000;11.640;2023-02-22T01:25:45;95916.63;;;4.11;84.59
31775;BME280;66189;49.000;11.640;2023-02-22T01:27:48;95916.59;;;4.19;84.76
31775;BME280;66189;49.000;11.640;2023-02-22T01:29:49;95912.69;;;4.17;85.39
31775;BME280;66189;49.000;11.640;2023-02-22T01:31:50;95905.97;;;4.19;85.55
31775;BME280;66189;49.000;11.640;2023-02-22T01:33:51;95910.66;;;4.22;85.51
31775;BME280;66189;49.000;11.640;2023-02-22T01:35:51;95906.88;;;4.23;85.42
31775;BME280;66189;49.000;11.640;2023-02-22T01:37:51;95906.88;;;4.23;85.27
31775;BME280;66189;49.000;11.640;2023-02-22T01:39:52;95909.22;;;4.25;85.02
31775;BME280;66189;49.000;11.640;2023-02-22T01:41:52;95905.16;;;4.27;85.35
31775;BME280;66189;49.000;11.640;2023-02-22T01:43:54;95902.97;;;4.21;85.11
31775;BME280;66189;49.000;11.640;2023-02-22T01:48:16;95905.66;;;4.21;85.25
31775;BME280;66189;49.000;11.640;2023-02-22T01:50:18;95897.81;;;4.16;84.89
31775;BME280;66189;49.000;11.640;2023-02-22T01:52:20;95897.66;;;4.12;85.50
31775;BME280;66189;49.000;11.640;2023-02-22T01:54:27;95903.31;;;4.11;86.24
31775;BME280;66189;49.000;11.640;2023-02-22T01:56:29;95898.75;;;4.11;86.76
31775;BME280;66189;49.000;11.640;2023-02-22T01:58:32;95891.88;;;4.10;86.71
31775;BME280;66189;49.000;11.640;2023-02-22T02:00:34;95899.06;;;4.09;86.56
31775;BME280;66189;49.000;11.640;2023-02-22T02:02:36;95892.19;;;4.08;86.94
31775;BME280;66189;49.000;11.640;2023-02-22T02:13:46;95878.91;;;4.08;85.20
31775;BME280;66189;49.000;11.640;2023-02-22T02:15:46;95880.94;;;4.03;84.92
31775;BME280;66189;49.000;11.640;2023-02-22T02:17:49;95874.81;;;4.02;85.24
31775;BME280;66189;49.000;11.640;2023-02-22T02:22:29;95872.47;;;4.01;84.98
31775;BME280;66189;49.000;11.640;2023-02-22T02:33:28;95863.88;;;3.95;85.18
31775;BME280;66189;49.000;11.640;2023-02-22T02:35:34;95870.75;;;3.96;85.42
31775;BME280;66189;49.000;11.640;2023-02-22T02:41:46;95852.28;;;3.91;85.47
31775;BME280;66189;49.000;11.640;2023-02-22T02:43:54;95854.06;;;3.78;84.67
31775;BME280;66189;49.000;11.640;2023-02-22T02:46:00;95856.88;;;3.64;84.35
31775;BME280;66189;49.000;11.640;2023-02-22T02:48:03;95855.00;;;3.47;84.06
31775;BME280;66189;49.000;11.640;2023-02-22T02:50:09;95847.50;;;3.49;84.06
31775;BME280;66189;49.000;11.640;2023-02-22T02:52:10;95843.59;;;3.47;83.08
31775;BME280;66189;49.000;11.640;2023-02-22T02:54:12;95844.38;;;3.47;82.82
31775;BME280;66189;49.000;11.640;2023-02-22T02:56:13;95841.88;;;3.51;82.85
31775;BME280;66189;49.000;11.640;2023-02-22T02:58:21;95843.59;;;3.55;84.03
31775;BME280;66189;49.000;11.640;2023-02-22T03:00:23;95840.31;;;3.59;85.03
31775;BME280;66189;49.000;11.640;2023-02-22T03:04:46;95829.84;;;3.45;81.99
31775;BME280;66189;49.000;11.640;2023-02-22T03:17:03;95820.91;;;3.23;80.69
31775;BME280;66189;49.000;11.640;2023-02-22T03:18:49;95824.50;;;3.27;81.89
31775;BME280;66189;49.000;11.640;2023-02-22T03:22:57;95819.34;;;3.31;84.23
31775;BME280;66189;49.000;11.640;2023-02-22T03:25:07;95819.03;;;3.32;84.59
31775;BME280;66189;49.000;11.640;2023-02-22T03:27:13;95823.72;;;3.35;86.86
31775;BME280;66189;49.000;11.640;2023-02-22T03:29:21;95822.50;;;3.42;86.90
31775;BME280;66189;49.000;11.640;2023-02-22T03:31:25;95825.91;;;3.42;86.55
31775;BME280;66189;49.000;11.640;2023-02-22T03:33:38;95823.25;;;3.42;86.26
31775;BME280;66189;49.000;11.640;2023-02-22T03:35:41;95821.38;;;3.43;85.85
31775;BME280;66189;49.000;11.640;2023-02-22T03:37:44;95822.94;;;3.44;86.05
31775;BME280;66189;49.000;11.640;2023-02-22T03:39:46;95820.28;;;3.44;85.36
31775;BME280;66189;49.000;11.640;2023-02-22T03:41:48;95817.16;;;3.42;85.18
31775;BME280;66189;49.000;11.640;2023-02-22T03:43:53;95821.22;;;3.39;84.88
31775;BME280;66189;49.000;11.640;2023-02-22T03:45:56;95826.22;;;3.41;84.76
31775;BME280;66189;49.000;11.640;2023-02-22T03:48:07;95821.38;;;3.43;84.90
31775;BME280;66189;49.000;11.640;2023-02-22T03:50:14;95824.03;;;3.43;84.93
31775;BME280;66189;49.000;11.640;2023-02-22T03:52:16;95819.66;;;3.38;84.64
31775;BME280;66189;49.000;11.640;2023-02-22T03:54:17;95824.66;;;3.40;84.57
31775;BME280;66189;49.000;11.640;2023-02-22T03:56:32;95822.63;;;3.36;84.62
31775;BME280;66189;49.000;11.640;2023-02-22T03:58:35;95824.81;;;3.34;84.15
31775;BME280;66189;49.000;11.640;2023-02-22T04:00:36;95827.31;;;3.31;83.93
31775;BME280;66189;49.000;11.640;2023-02-22T04:02:37;95822.94;;;3.26;84.12
31775;BME280;66189;49.000;11.640;2023-02-22T04:04:37;95824.81;;;3.26;84.41
31775;BME280;66189;49.000;11.640;2023-02-22T04:06:37;95827.34;;;3.22;84.04
31775;BME280;66189;49.000;11.640;2023-02-22T04:08:38;95830.63;;;3.19;84.24
31775;BME280;66189;49.000;11.640;2023-02-22T04:10:38;95829.50;;;3.20;84.60
31775;BME280;66189;49.000;11.640;2023-02-22T04:12:39;95824.81;;;3.17;85.12
31775;BME280;66189;49.000;11.640;2023-02-22T04:14:40;95831.69;;;3.09;84.42
31775;BME280;66189;49.000;11.640;2023-02-22T04:16:41;95826.69;;;3.08;84.81
31775;BME280;66189;49.000;11.640;2023-02-22T04:18:43;95827.31;;;3.05;85.24
31775;BME280;66189;49.000;11.640;2023-02-22T04:20:45;95818.72;;;3.08;85.18
31775;BME280;66189;49.000;11.640;2023-02-22T04:22:54;95832.47;;;3.10;85.28
31775;BME280;66189;49.000;11.640;2023-02-22T04:24:55;95834.97;;;3.06;85.46
31775;BME280;66189;49.000;11.640;2023-02-22T04:26:55;95827.63;;;3.03;85.41
31775;BME280;66189;49.000;11.640;2023-02-22T04:28:57;95835.44;;;2.99;85.81
31775;BME280;66189;49.000;11.640;2023-02-22T04:31:00;95824.81;;;2.99;86.00
31775;BME280;66189;49.000;11.640;2023-02-22T04:33:02;95825.44;;;2.96;86.12
31775;BME280;66189;49.000;11.640;2023-02-22T04:35:03;95827.16;;;2.92;86.38
31775;BME280;66189;49.000;11.640;2023-02-22T04:37:05;95833.69;;;2.86;85.63
31775;BME280;66189;49.000;11.640;2023-02-22T04:39:08;95833.69;;;2.86;85.52
31775;BME280;66189;49.000;11.640;2023-02-22T04:41:09;95825.72;;;2.86;85.87
31775;BME280;66189;49.000;11.640;2023-02-22T04:43:10;95827.31;;;2.87;85.90
31775;BME280;66189;49.000;11.640;2023-02-22T04:45:13;95825.56;;;2.91;85.71
31775;BME280;66189;49.000;11.640;2023-02-22T04:47:14;95813.84;;;2.92;85.50
31775;BME280;66189;49.000;11.640;2023-02-22T04:49:14;95822.47;;;2.98;86.06
31775;BME280;66189;49.000;11.640;2023-02-22T04:51:16;95812.16;;;2.96;86.37
31775;BME280;66189;49.000;11.640;2023-02-22T04:53:46;95813.84;;;2.92;86.19
31775;BME280;66189;49.000;11.640;2023-02-22T04:55:46;95817.13;;;2.89;86.80
31775;BME280;66189;49.000;11.640;2023-02-22T04:57:46;95807.16;;;2.95;86.95
31775;BME280;66189;49.000;11.640;2023-02-22T04:59:47;95805.56;;;2.85;87.88
31775;BME280;66189;49.000;11.640;2023-02-22T05:01:48;95811.81;;;2.89;88.55
31775;BME280;66189;49.000;11.640;2023-02-22T05:03:48;95811.97;;;2.93;89.36
31775;BME280;66189;49.000;11.640;2023-02-22T05:05:50;95801.66;;;2.91;90.12
31775;BME280;66189;49.000;11.640;2023-02-22T05:07:50;95798.06;;;2.96;90.45
31775;BME280;66189;49.000;11.640;2023-02-22T05:09:51;95795.91;;;2.98;90.41
31775;BME280;66189;49.000;11.640;2023-02-22T05:11:52;95794.19;;;2.93;89.58
31775;BME280;66189;49.000;11.640;2023-02-22T05:13:52;95800.13;;;2.90;89.24
31775;BME280;66189;49.000;11.640;2023-02-22T05:15:53;95796.34;;;2.91;88.11
31775;BME280;66189;49.000;11.640;2023-02-22T05:17:53;95800.13;;;2.90;87.51
31775;BME280;66189;49.000;11.640;2023-02-22T05:19:53;95797.44;;;2.90;87.58
31775;BME280;66189;49.000;11.640;2023-02-22T05:21:54;95800.75;;;2.87;88.14
31775;BME280;66189;49.000;11.640;2023-02-22T05:23:55;95794.16;;;2.84;88.47
31775;BME280;66189;49.000;11.640;2023-02-22T05:25:56;95792.28;;;2.85;88.69
31775;BME280;66189;49.000;11.640;2023-02-22T05:28:10;95792.13;;;2.90;88.72
31775;BME280;66189;49.000;11.640;2023-02-22T05:30:11;95790.56;;;2.89;88.85
31775;BME280;66189;49.000;11.640;2023-02-22T05:32:12;95790.88;;;2.88;88.26
31775;BME280;66189;49.000;11.640;2023-02-22T05:34:12;95789.78;;;2.80;88.46
31775;BME280;66189;49.000;11.640;2023-02-22T05:36:13;95788.69;;;2.81;88.67
31775;BME280;66189;49.000;11.640;2023-02-22T05:38:13;95786.63;;;2.78;88.56
31775;BME280;66189;49.000;11.640;2023-02-22T05:40:14;95791.47;;;2.76;87.68
31775;BME280;66189;49.000;11.640;2023-02-22T05:42:16;95794.91;;;2.76;86.74
31775;BME280;66189;49.000;11.640;2023-02-22T05:44:18;95788.38;;;2.74;86.24
31775;BME280;66189;49.000;11.640;2023-02-22T05:46:18;95793.38;;;2.75;87.84
31775;BME280;66189;49.000;11.640;2023-02-22T05:48:19;95796.66;;;2.72;87.18
31775;BME280;66189;49.000;11.640;2023-02-22T05:50:19;95785.84;;;2.77;86.82
31775;BME280;66189;49.000;11.640;2023-02-22T05:52:20;95789.59;;;2.76;87.96
31775;BME280;66189;49.000;11.640;2023-02-22T05:54:20;95790.25;;;2.82;88.84
31775;BME280;66189;49.000;11.640;2023-02-22T05:56:21;95781.03;;;2.88;89.48
31775;BME280;66189;49.000;11.640;2023-02-22T05:58:22;95780.41;;;2.91;90.05
31775;BME280;66189;49.000;11.640;2023-02-22T06:00:27;95788.84;;;2.93;89.56
31775;BME280;66189;49.000;11.640;2023-02-22T06:02:27;95784.00;;;2.95;89.87
31775;BME280;66189;49.000;11.640;2023-02-22T06:04:28;95788.25;;;2.96;89.18
31775;BME280;66189;49.000;11.640;2023-02-22T06:06:28;95786.03;;;2.98;88.68
31775;BME280;66189;49.000;11.640;2023-02-22T06:08:28;95791.50;;;3.02;88.10
31775;BME280;66189;49.000;11.640;2023-02-22T06:10:29;95789.34;;;3.04;87.98
31775;BME280;66189;49.000;11.640;2023-02-22T06:12:29;95791.81;;;3.09;88.05
31775;BME280;66189;49.000;11.640;2023-02-22T06:14:29;95792.59;;;3.10;87.70
31775;BME280;66189;49.000;11.640;2023-02-22T06:16:30;95789.94;;;3.10;87.83
31775;BME280;66189;49.000;11.640;2023-02-22T06:18:31;95796.50;;;3.12;88.24
31775;BME280;66189;49.000;11.640;2023-02-22T06:20:31;95789.78;;;3.15;88.19
31775;BME280;66189;49.000;11.640;2023-02-22T06:22:33;95788.84;;;3.19;88.21
31775;BME280;66189;49.000;11.640;2023-02-22T06:24:34;95795.56;;;3.26;88.13
31775;BME280;66189;49.000;11.640;2023-02-22T06:26:37;95800.44;;;3.15;87.07
31775;BME280;66189;49.000;11.640;2023-02-22T06:28:37;95790.56;;;3.07;86.46
31775;BME280;66189;49.000;11.640;2023-02-22T06:30:37;95794.34;;;3.14;88.19
31775;BME280;66189;49.000;11.640;2023-02-22T06:32:39;95796.97;;;3.23;89.44
31775;BME280;66189;49.000;11.640;2023-02-22T06:34:40;95796.06;;;3.19;89.18
31775;BME280;66189;49.000;11.640;2023-02-22T06:36:40;95801.81;;;3.12;88.16
31775;BME280;66189;49.000;11.640;2023-02-22T06:38:41;95795.13;;;3.15;87.21
31775;BME280;66189;49.000;11.640;2023-02-22T06:40:42;95794.50;;;3.18;87.49
31775;BME280;66189;49.000;11.640;2023-02-22T06:42:42;95792.78;;;3.13;88.47
31775;BME280;66189;49.000;11.640;2023-02-22T06:44:43;95795.75;;;3.12;88.86
31775;BME280;66189;49.000;11.640;2023-02-22T06:46:48;95796.19;;;3.14;88.88
31775;BME280;66189;49.000;11.640;2023-02-22T06:48:50;95793.22;;;3.07;87.83
31775;BME280;66189;49.000;11.640;2023-02-22T06:50:51;95795.56;;;3.08;88.34
31775;BME280;66189;49.000;11.640;2023-02-22T06:52:51;95796.38;;;3.09;87.63
31775;BME280;66189;49.000;11.640;2023-02-22T06:54:52;95799.47;;;3.11;87.10
31775;BME280;66189;49.000;11.640;2023-02-22T06:56:52;95801.69;;;3.17;87.13
31775;BME280;66189;49.000;11.640;2023-02-22T06:58:52;95802.31;;;3.14;87.94
31775;BME280;66189;49.000;11.640;2023-02-22T07:00:53;95805.91;;;3.18;87.58
31775;BME280;66189;49.000;11.640;2023-02-22T07:02:53;95811.38;;;3.22;87.44
31775;BME280;66189;49.000;11.640;2023-02-22T07:04:53;95811.22;;;3.18;86.89
31775;BME280;66189;49.000;11.640;2023-02-22T07:06:54;95808.72;;;3.22;86.43
31775;BME280;66189;49.000;11.640;2023-02-22T07:08:54;95809.19;;;3.24;86.21
31775;BME280;66189;49.000;11.640;2023-02-22T07:10:55;95804.94;;;3.23;86.23
31775;BME280;66189;49.000;11.640;2023-02-22T07:12:55;95816.06;;;3.25;85.79
31775;BME280;66189;49.000;11.640;2023-02-22T07:14:55;95816.84;;;3.26;85.43
31775;BME280;66189;49.000;11.640;2023-02-22T07:16:56;95810.75;;;3.25;84.97
31775;BME280;66189;49.000;11.640;2023-02-22T07:18:56;95808.69;;;3.31;84.65
31775;BME280;66189;49.000;11.640;2023-02-22T07:20:56;95813.88;;;3.36;84.32
31775;BME280;66189;49.000;11.640;2023-02-22T07:22:57;95815.09;;;3.38;84.44
31775;BME280;66189;49.000;11.640;2023-02-22T07:24:58;95810.91;;;3.29;84.19
31775;BME280;66189;49.000;11.640;2023-02-22T07:26:59;95815.59;;;3.41;84.47
31775;BME280;66189;49.000;11.640;2023-02-22T07:29:00;95814.50;;;3.42;84.55
31775;BME280;66189;49.000;11.640;2023-02-22T07:31:00;95809.97;;;3.51;84.59
31775;BME280;66189;49.000;11.640;2023-02-22T07:33:08;95805.41;;;3.60;84.83
31775;BME280;66189;49.000;11.640;2023-02-22T07:35:27;95811.50;;;3.69;84.41
31775;BME280;66189;49.000;11.640;2023-02-22T07:37:27;95801.91;;;3.86;84.57
31775;BME280;66189;49.000;11.640;2023-02-22T07:39:28;95807.81;;;4.00;84.51
31775;BME280;66189;49.000;11.640;2023-02-22T07:41:29;95808.84;;;4.17;85.00
31775;BME280;66189;49.000;11.640;2023-02-22T07:43:29;95805.81;;;4.36;84.23
31775;BME280;66189;49.000;11.640;2023-02-22T07:45:33;95802.94;;;4.50;84.58
31775;BME280;66189;49.000;11.640;2023-02-22T07:47:33;95808.31;;;4.71;84.27
31775;BME280;66189;49.000;11.640;2023-02-22T07:49:34;95805.19;;;4.90;84.15
31775;BME280;66189;49.000;11.640;2023-02-22T07:51:34;95802.53;;;5.11;83.58
31775;BME280;66189;49.000;11.640;2023-02-22T07:53:34;95804.56;;;5.14;82.41
31775;BME280;66189;49.000;11.640;2023-02-22T07:55:35;95802.84;;;5.30;83.09
31775;BME280;66189;49.000;11.640;2023-02-22T07:57:35;95803.81;;;5.47;82.97
31775;BME280;66189;49.000;11.640;2023-02-22T07:59:35;95799.97;;;5.57;83.26
31775;BME280;66189;49.000;11.640;2023-02-22T08:01:36;95794.34;;;5.70;83.55
31775;BME280;66189;49.000;11.640;2023-02-22T08:03:36;95793.28;;;5.50;83.60
31775;BME280;66189;49.000;11.640;2023-02-22T08:05:37;95803.97;;;5.63;83.58
31775;BME280;66189;49.000;11.640;2023-02-22T08:07:38;95800.28;;;5.88;82.96
31775;BME280;66189;49.000;11.640;2023-02-22T08:09:39;95806.81;;;6.12;81.61
31775;BME280;66189;49.000;11.640;2023-02-22T08:11:39;95811.41;;;6.36;81.36
31775;BME280;66189;49.000;11.640;2023-02-22T08:13:40;95810.50;;;6.57;80.86
31775;BME280;66189;49.000;11.640;2023-02-22T08:15:41;95806.84;;;6.37;79.93
31775;BME280;66189;49.000;11.640;2023-02-22T08:17:43;95806.50;;;6.63;79.72
31775;BME280;66189;49.000;11.640;2023-02-22T08:19:43;95796.81;;;6.83;79.62
31775;BME280;66189;49.000;11.640;2023-02-22T08:21:43;95800.41;;;7.16;78.83
31775;BME280;66189;49.000;11.640;2023-02-22T08:23:44;95800.59;;;7.35;78.07
31775;BME280;66189;49.000;11.640;2023-02-22T08:25:44;95792.41;;;7.44;78.22
31775;BME280;66189;49.000;11.640;2023-02-22T08:27:45;95798.75;;;7.52;77.98
31775;BME280;66189;49.000;11.640;2023-02-22T08:29:46;95790.31;;;7.65;77.44
31775;BME280;66189;49.000;11.640;2023-02-22T08:31:50;95797.47;;;7.61;77.25
31775;BME280;66189;49.000;11.640;2023-02-22T08:33:53;95793.97;;;7.73;77.43
31775;BME280;66189;49.000;11.640;2023-02-22T08:35:53;95800.34;;;7.69;76.35
31775;BME280;66189;49.000;11.640;2023-02-22T08:37:57;95793.91;;;7.57;76.57
31775;BME280;66189;49.000;11.640;2023-02-22T08:39:58;95795.66;;;7.65;76.99
31775;BME280;66189;49.000;11.640;2023-02-22T08:41:58;95791.38;;;7.77;76.47
31775;BME280;66189;49.000;11.640;2023-02-22T08:43:59;95795.69;;;7.81;77.19
31775;BME280;66189;49.000;11.640;2023-02-22T08:46:01;95793.75;;;7.94;77.34
31775;BME280;66189;49.000;11.640;2023-02-22T08:48:01;95791.22;;;8.01;76.51
31775;BME280;66189;49.000;11.640;2023-02-22T08:50:02;95787.44;;;8.03;75.85
31775;BME280;66189;49.000;11.640;2023-02-22T08:52:03;95791.22;;;8.01;75.43
31775;BME280;66189;49.000;11.640;2023-02-22T08:54:03;95793.66;;;8.07;74.42
31775;BME280;66189;49.000;11.640;2023-02-22T08:56:05;95795.91;;;8.36;73.23
31775;BME280;66189;49.000;11.640;2023-02-22T08:58:06;95792.72;;;8.47;73.08
31775;BME280;66189;49.000;11.640;2023-02-22T09:00:09;95792.28;;;8.77;73.32
31775;BME280;66189;49.000;11.640;2023-02-22T09:02:18;95795.03;;;8.80;71.63
31775;BME280;66189;49.000;11.640;2023-02-22T09:04:19;95792.38;;;9.00;72.14
31775;BME280;66189;49.000;11.640;2023-02-22T09:06:19;95795.31;;;9.30;71.02
31775;BME280;66189;49.000;11.640;2023-02-22T09:08:20;95800.97;;;9.25;70.81
31775;BME280;66189;49.000;11.640;2023-02-22T09:10:22;95787.13;;;9.23;69.84
31775;BME280;66189;49.000;11.640;2023-02-22T09:12:26;95806.41;;;9.29;70.24
31775;BME280;66189;49.000;11.640;2023-02-22T09:14:26;95790.31;;;9.29;70.63
31775;BME280;66189;49.000;11.640;2023-02-22T09:16:26;95789.94;;;9.30;69.03
31775;BME280;66189;49.000;11.640;2023-02-22T09:18:28;95793.06;;;9.52;69.61
31775;BME280;66189;49.000;11.640;2023-02-22T09:20:28;95784.66;;;9.53;69.06
31775;BME280;66189;49.000;11.640;2023-02-22T09:22:28;95788.13;;;9.34;68.65
31775;BME280;66189;49.000;11.640;2023-02-22T09:24:29;95782.75;;;9.54;69.29
31775;BME280;66189;49.000;11.640;2023-02-22T09:26:29;95780.28;;;9.65;68.15
31775;BME280;66189;49.000;11.640;2023-02-22T09:28:30;95784.56;;;9.69;68.01
31775;BME280;66189;49.000;11.640;2023-02-22T09:30:31;95781.00;;;9.85;67.85
31775;BME280;66189;49.000;11.640;2023-02-22T09:32:31;95779.75;;;9.78;67.67
31775;BME280;66189;49.000;11.640;2023-02-22T09:34:32;95783.97;;;9.99;67.13
31775;BME280;66189;49.000;11.640;2023-02-22T09:36:34;95778.22;;;10.24;66.99
31775;BME280;66189;49.000;11.640;2023-02-22T09:38:34;95774.91;;;10.54;66.70
31775;BME280;66189;49.000;11.640;2023-02-22T09:40:36;95781.94;;;10.62;65.42
31775;BME280;66189;49.000;11.640;2023-02-22T09:42:46;95778.41;;;10.84;66.72
31775;BME280;66189;49.000;11.640;2023-02-22T09:46:56;95772.09;;;11.00;64.77
31775;BME280;66189;49.000;11.640;2023-02-22T09:49:08;95767.59;;;10.81;64.15
31775;BME280;66189;49.000;11.640;2023-02-22T09:51:15;95766.66;;;10.70;64.28
31775;BME280;66189;49.000;11.640;2023-02-22T09:53:20;95769.16;;;10.55;65.48
31775;BME280;66189;49.000;11.640;2023-02-22T09:55:38;95767.91;;;11.02;64.25
31775;BME280;66189;49.000;11.640;2023-02-22T09:57:40;95764.13;;;11.07;64.67
31775;BME280;66189;49.000;11.640;2023-02-22T09:59:43;95762.88;;;11.01;64.72
31775;BME280;66189;49.000;11.640;2023-02-22T10:01:47;95759.09;;;11.06;64.66
31775;BME280;66189;49.000;11.640;2023-02-22T10:03:49;95756.09;;;11.14;65.89
31775;BME280;66189;49.000;11.640;2023-02-22T10:05:59;95758.81;;;11.14;64.94
31775;BME280;66189;49.000;11.640;2023-02-22T10:08:07;95747.13;;;11.33;65.43
31775;BME280;66189;49.000;11.640;2023-02-22T10:10:13;95749.69;;;11.23;62.66
31775;BME280;66189;49.000;11.640;2023-02-22T10:14:46;95747.03;;;11.26;63.17
31775;BME280;66189;49.000;11.640;2023-02-22T10:20:52;95741.28;;;11.62;61.57
31775;BME280;66189;49.000;11.640;2023-02-22T10:25:00;95747.03;;;11.60;61.54
31775;BME280;66189;49.000;11.640;2023-02-22T10:27:05;95736.84;;;11.09;62.09
31775;BME280;66189;49.000;11.640;2023-02-22T10:31:27;95747.25;;;11.44;61.46
31775;BME280;66189;49.000;11.640;2023-02-22T10:33:33;95742.03;;;11.59;61.73
31775;BME280;66189;49.000;11.640;2023-02-22T10:35:35;95740.38;;;11.88;61.51
31775;BME280;66189;49.000;11.640;2023-02-22T10:37:38;95736.84;;;11.80;61.68
31775;BME280;66189;49.000;11.640;2023-02-22T10:39:39;95731.72;;;11.68;61.39
31775;BME280;66189;49.000;11.640;2023-02-22T10:41:45;95729.22;;;11.86;61.89
31775;BME280;66189;49.000;11.640;2023-02-22T10:43:48;95733.50;;;11.90;60.00
31775;BME280;66189;49.000;11.640;2023-02-22T10:45:49;95727.91;;;12.10;59.89
31775;BME280;66189;49.000;11.640;2023-02-22T10:47:53;95733.63;;;12.05;59.80
31775;BME280;66189;49.000;11.640;2023-02-22T10:49:55;95722.38;;;12.40;59.80
31775;BME280;66189;49.000;11.640;2023-02-22T10:51:59;95729.09;;;12.68;59.07
31775;BME280;66189;49.000;11.640;2023-02-22T10:56:13;95716.78;;;12.71;60.34
31775;BME280;66189;49.000;11.640;2023-02-22T10:58:15;95722.50;;;12.62;57.89
31775;BME280;66189;49.000;11.640;2023-02-22T11:00:22;95715.13;;;12.55;58.51
31775;BME280;66189;49.000;11.640;2023-02-22T11:02:30;95717.50;;;12.68;57.51
31775;BME280;66189;49.000;11.640;2023-02-22T11:04:30;95710.38;;;12.97;57.21
31775;BME280;66189;49.000;11.640;2023-02-22T11:06:44;95708.03;;;12.95;56.67
31775;BME280;66189;49.000;11.640;2023-02-22T11:08:44;95708.81;;;12.96;57.00
31775;BME280;66189;49.000;11.640;2023-02-22T11:10:50;95708.53;;;13.26;57.60
31775;BME280;66189;49.000;11.640;2023-02-22T11:12:50;95702.75;;;13.31;57.16
31775;BME280;66189;49.000;11.640;2023-02-22T11:14:52;95697.81;;;13.37;55.91
31775;BME280;66189;49.000;11.640;2023-02-22T11:16:53;95702.38;;;13.29;56.24
31775;BME280;66189;49.000;11.640;2023-02-22T11:18:59;95692.06;;;13.57;55.75
31775;BME280;66189;49.000;11.640;2023-02-22T11:21:04;95688.97;;;13.55;55.61
31775;BME280;66189;49.000;11.640;2023-02-22T11:23:05;95691.97;;;13.31;56.03
31775;BME280;66189;49.000;11.640;2023-02-22T11:25:07;95688.25;;;13.65;57.35
31775;BME280;66189;49.000;11.640;2023-02-22T11:27:07;95684.75;;;13.68;56.30
31775;BME280;66189;49.000;11.640;2023-02-22T11:29:15;95688.63;;;13.67;55.77
31775;BME280;66189;49.000;11.640;2023-02-22T11:31:19;95682.41;;;13.56;56.32
31775;BME280;66189;49.000;11.640;2023-02-22T11:33:21;95680.44;;;13.42;55.27
31775;BME280;66189;49.000;11.640;2023-02-22T11:35:30;95671.19;;;13.43;55.47
31775;BME280;66189;49.000;11.640;2023-02-22T11:37:32;95675.34;;;13.19;55.57
31775;BME280;66189;49.000;11.640;2023-02-22T11:39:32;95681.91;;;13.21;56.31
31775;BME280;66189;49.000;11.640;2023-02-22T11:41:34;95668.09;;;13.33;55.00